createdAt,value
2019-02-18T00:00:01.265Z,5.62
2019-02-18T00:01:01.093Z,5.62
2019-02-18T00:02:01.790Z,5.62
2019-02-18T00:03:01.099Z,5.56
2019-02-18T00:04:01.051Z,5.62
2019-02-18T00:05:02.060Z,5.56
2019-02-18T00:06:00.999Z,5.56
2019-02-18T00:07:01.072Z,5.56
2019-02-18T00:08:01.023Z,5.5
2019-02-18T00:09:01.730Z,5.56
2019-02-18T00:10:01.057Z,5.5
2019-02-18T00:11:01.524Z,5.5
2019-02-18T00:12:01.451Z,5.5
2019-02-18T00:13:01.103Z,5.44
2019-02-18T00:14:01.043Z,5.5
2019-02-18T00:15:01.046Z,5.44
2019-02-18T00:16:01.087Z,5.44
2019-02-18T00:17:00.923Z,5.37
2019-02-18T00:18:01.055Z,5.31
2019-02-18T00:19:01.574Z,5.37
2019-02-18T00:20:02.749Z,5.37
2019-02-18T00:21:01.036Z,5.37
2019-02-18T00:22:00.897Z,5.31
2019-02-18T00:23:01.128Z,5.31
2019-02-18T00:24:02.171Z,5.31
2019-02-18T00:25:01.784Z,5.25
2019-02-18T00:26:01.224Z,5.25
2019-02-18T00:27:00.716Z,5.25
2019-02-18T00:28:01.066Z,5.25
2019-02-18T00:29:01.068Z,5.25
2019-02-18T00:30:01.145Z,5.19
2019-02-18T00:31:01.241Z,5.12
2019-02-18T00:32:01.057Z,5.12
2019-02-18T00:33:01.159Z,5.19
2019-02-18T00:34:01.168Z,5.19
2019-02-18T00:35:01.183Z,5.12
2019-02-18T00:36:01.372Z,5.19
2019-02-18T00:37:01.041Z,5.12
2019-02-18T00:38:00.882Z,5.12
2019-02-18T00:39:01.202Z,5.19
2019-02-18T00:40:01.226Z,5.19
2019-02-18T00:41:02.710Z,5.19
2019-02-18T00:42:01.386Z,5.12
2019-02-18T00:43:01.421Z,5.19
2019-02-18T00:44:01.140Z,5.12
2019-02-18T00:45:01.455Z,5.12
2019-02-18T00:46:00.850Z,5.12
2019-02-18T00:47:00.829Z,5.12
2019-02-18T00:48:01.161Z,5.19
2019-02-18T00:49:01.508Z,5.12
2019-02-18T00:50:01.898Z,5.12
2019-02-18T00:51:00.852Z,5.19
2019-02-18T00:52:01.084Z,5.12
2019-02-18T00:53:04.380Z,5.12
2019-02-18T00:54:01.143Z,5.06
2019-02-18T00:55:01.208Z,5.12
2019-02-18T00:56:01.132Z,5.06
2019-02-18T00:57:00.972Z,5.06
2019-02-18T00:58:00.835Z,5.06
2019-02-18T00:59:01.237Z,5.12
2019-02-18T01:00:01.559Z,5.12
2019-02-18T01:01:02.802Z,5.06
2019-02-18T01:02:01.145Z,5.06
2019-02-18T01:03:01.474Z,5.06
2019-02-18T01:04:00.893Z,5.06
2019-02-18T01:05:01.162Z,5.06
2019-02-18T01:06:01.706Z,5
2019-02-18T01:07:01.217Z,5
2019-02-18T01:08:01.201Z,5
2019-02-18T01:09:00.933Z,5
2019-02-18T01:10:01.418Z,4.94
2019-02-18T01:11:01.533Z,4.94
2019-02-18T01:12:01.356Z,4.94
2019-02-18T01:13:02.653Z,4.87
2019-02-18T01:14:01.037Z,4.87
2019-02-18T01:15:02.690Z,4.87
2019-02-18T01:16:01.242Z,4.87
2019-02-18T01:17:02.699Z,4.87
2019-02-18T01:18:02.679Z,4.81
2019-02-18T01:19:02.646Z,4.87
2019-02-18T01:20:01.083Z,4.87
2019-02-18T01:21:01.187Z,4.81
2019-02-18T01:22:00.901Z,4.81
2019-02-18T01:23:01.397Z,4.81
2019-02-18T01:24:02.720Z,4.81
2019-02-18T01:25:01.111Z,4.75
2019-02-18T01:26:01.714Z,4.69
2019-02-18T01:27:01.213Z,4.75
2019-02-18T01:28:00.793Z,4.69
2019-02-18T01:29:01.232Z,4.75
2019-02-18T01:30:00.962Z,4.69
2019-02-18T01:31:01.174Z,4.69
2019-02-18T01:32:01.258Z,4.75
2019-02-18T01:33:01.316Z,4.69
2019-02-18T01:34:00.908Z,4.69
2019-02-18T01:35:01.157Z,4.62
2019-02-18T01:36:00.823Z,4.69
2019-02-18T01:37:01.305Z,4.69
2019-02-18T01:38:01.093Z,4.62
2019-02-18T01:39:01.096Z,4.69
2019-02-18T01:40:01.265Z,4.62
2019-02-18T01:41:02.626Z,4.69
2019-02-18T01:42:01.650Z,4.62
2019-02-18T01:43:01.224Z,4.62
2019-02-18T01:44:01.071Z,4.62
2019-02-18T01:45:01.139Z,4.62
2019-02-18T01:46:01.245Z,4.69
2019-02-18T01:47:01.248Z,4.62
2019-02-18T01:48:01.355Z,4.62
2019-02-18T01:49:00.833Z,4.69
2019-02-18T01:50:01.378Z,4.62
2019-02-18T01:51:02.079Z,4.62
2019-02-18T01:52:02.616Z,4.62
2019-02-18T01:53:00.990Z,4.62
2019-02-18T01:54:01.295Z,4.62
2019-02-18T01:55:00.754Z,4.62
2019-02-18T01:56:01.703Z,4.56
2019-02-18T01:57:01.000Z,4.62
2019-02-18T01:58:01.433Z,4.62
2019-02-18T01:59:01.233Z,4.62
2019-02-18T02:00:01.355Z,4.62
2019-02-18T02:01:01.278Z,4.62
2019-02-18T02:02:01.261Z,4.62
2019-02-18T02:03:00.838Z,4.62
2019-02-18T02:04:01.151Z,4.56
2019-02-18T02:05:01.482Z,4.56
2019-02-18T02:06:00.931Z,4.56
2019-02-18T02:07:02.592Z,4.56
2019-02-18T02:08:02.855Z,4.56
2019-02-18T02:09:00.795Z,4.5
2019-02-18T02:10:00.871Z,4.44
2019-02-18T02:11:00.799Z,4.44
2019-02-18T02:12:00.723Z,4.44
2019-02-18T02:13:00.992Z,4.5
2019-02-18T02:14:01.015Z,4.44
2019-02-18T02:15:01.838Z,4.44
2019-02-18T02:16:01.154Z,4.37
2019-02-18T02:17:01.138Z,4.44
2019-02-18T02:18:01.948Z,4.44
2019-02-18T02:19:02.639Z,4.44
2019-02-18T02:20:02.315Z,4.44
2019-02-18T02:21:02.599Z,4.44
2019-02-18T02:22:00.890Z,4.37
2019-02-18T02:23:00.981Z,4.44
2019-02-18T02:24:01.014Z,4.37
2019-02-18T02:25:00.799Z,4.44
2019-02-18T02:26:01.434Z,4.37
2019-02-18T02:27:00.907Z,4.44
2019-02-18T02:28:00.709Z,4.37
2019-02-18T02:29:01.753Z,4.37
2019-02-18T02:30:02.645Z,4.44
2019-02-18T02:31:02.369Z,4.31
2019-02-18T02:32:01.123Z,4.37
2019-02-18T02:33:01.462Z,4.31
2019-02-18T02:34:00.752Z,4.31
2019-02-18T02:35:00.760Z,4.31
2019-02-18T02:36:01.279Z,4.31
2019-02-18T02:37:00.804Z,4.31
2019-02-18T02:38:08.477Z,4.25
2019-02-18T02:39:01.077Z,4.31
2019-02-18T02:40:01.415Z,4.31
2019-02-18T02:41:01.553Z,4.25
2019-02-18T02:42:00.800Z,4.25
2019-02-18T02:43:00.767Z,4.25
2019-02-18T02:44:01.559Z,4.25
2019-02-18T02:45:00.827Z,4.25
2019-02-18T02:46:00.692Z,4.25
2019-02-18T02:47:00.816Z,4.25
2019-02-18T02:48:01.067Z,4.19
2019-02-18T02:49:01.036Z,4.25
2019-02-18T02:50:01.249Z,4.25
2019-02-18T02:51:00.862Z,4.19
2019-02-18T02:52:01.174Z,4.25
2019-02-18T02:53:01.181Z,4.19
2019-02-18T02:54:00.807Z,4.19
2019-02-18T02:55:02.523Z,4.19
2019-02-18T02:56:02.516Z,4.12
2019-02-18T02:57:02.526Z,4.12
2019-02-18T02:58:01.040Z,4.06
2019-02-18T02:59:01.213Z,4.12
2019-02-18T03:00:01.057Z,4.12
2019-02-18T03:01:01.041Z,4.06
2019-02-18T03:02:00.700Z,4.12
2019-02-18T03:03:01.958Z,4.06
2019-02-18T03:04:01.067Z,4.12
2019-02-18T03:05:01.272Z,4.06
2019-02-18T03:06:01.168Z,4.06
2019-02-18T03:07:00.874Z,4.06
2019-02-18T03:08:00.850Z,4.06
2019-02-18T03:09:00.879Z,4.12
2019-02-18T03:10:01.073Z,4.06
2019-02-18T03:11:01.077Z,4.06
2019-02-18T03:12:00.931Z,4.06
2019-02-18T03:13:00.834Z,4.06
2019-02-18T03:14:00.821Z,4
2019-02-18T03:15:02.519Z,4
2019-02-18T03:16:00.765Z,4
2019-02-18T03:17:00.791Z,4
2019-02-18T03:18:01.105Z,4
2019-02-18T03:19:00.812Z,4
2019-02-18T03:20:00.970Z,4
2019-02-18T03:21:00.752Z,4
2019-02-18T03:22:01.813Z,4
2019-02-18T03:23:01.534Z,4
2019-02-18T03:24:00.983Z,4
2019-02-18T03:25:01.710Z,4.06
2019-02-18T03:26:00.890Z,4.06
2019-02-18T03:27:01.033Z,4
2019-02-18T03:28:00.654Z,4
2019-02-18T03:29:02.466Z,4.06
2019-02-18T03:30:00.979Z,4.06
2019-02-18T03:31:01.268Z,4
2019-02-18T03:32:00.688Z,4
2019-02-18T03:33:00.947Z,4
2019-02-18T03:34:00.772Z,4
2019-02-18T03:35:01.472Z,4
2019-02-18T03:36:00.746Z,3.94
2019-02-18T03:37:00.863Z,4
2019-02-18T03:38:00.950Z,4
2019-02-18T03:39:00.885Z,3.94
2019-02-18T03:40:00.830Z,3.94
2019-02-18T03:41:04.070Z,3.94
2019-02-18T03:42:02.100Z,3.94
2019-02-18T03:43:00.620Z,3.94
2019-02-18T03:44:01.294Z,3.87
2019-02-18T03:45:00.788Z,3.87
2019-02-18T03:46:02.503Z,3.87
2019-02-18T03:47:00.486Z,3.87
2019-02-18T03:48:00.464Z,3.94
2019-02-18T03:49:00.433Z,3.94
2019-02-18T03:50:00.641Z,3.94
2019-02-18T03:51:00.977Z,3.87
2019-02-18T03:52:00.667Z,3.87
2019-02-18T03:53:01.099Z,3.87
2019-02-18T03:54:00.863Z,3.87
2019-02-18T03:55:01.039Z,3.87
2019-02-18T03:56:00.918Z,3.87
2019-02-18T03:57:00.919Z,3.87
2019-02-18T03:58:00.953Z,3.81
2019-02-18T03:59:01.313Z,3.81
2019-02-18T04:00:01.041Z,3.75
2019-02-18T04:01:00.926Z,3.81
2019-02-18T04:02:01.239Z,3.81
2019-02-18T04:03:00.701Z,3.81
2019-02-18T04:04:02.437Z,3.81
2019-02-18T04:05:01.110Z,3.75
2019-02-18T04:06:00.778Z,3.75
2019-02-18T04:07:01.190Z,3.75
2019-02-18T04:08:01.111Z,3.81
2019-02-18T04:09:02.477Z,3.75
2019-02-18T04:10:00.845Z,3.75
2019-02-18T04:11:00.780Z,3.75
2019-02-18T04:12:00.678Z,3.69
2019-02-18T04:13:00.959Z,3.75
2019-02-18T04:14:00.912Z,3.75
2019-02-18T04:15:01.067Z,3.75
2019-02-18T04:16:01.026Z,3.75
2019-02-18T04:17:01.112Z,3.69
2019-02-18T04:18:00.698Z,3.69
2019-02-18T04:19:00.821Z,3.69
2019-02-18T04:20:01.308Z,3.69
2019-02-18T04:21:00.954Z,3.69
2019-02-18T04:22:00.866Z,3.62
2019-02-18T04:23:00.753Z,3.62
2019-02-18T04:24:00.985Z,3.56
2019-02-18T04:25:00.985Z,3.56
2019-02-18T04:26:00.955Z,3.56
2019-02-18T04:27:00.659Z,3.56
2019-02-18T04:28:00.916Z,3.5
2019-02-18T04:29:00.911Z,3.5
2019-02-18T04:30:00.922Z,3.5
2019-02-18T04:31:02.029Z,3.5
2019-02-18T04:32:01.777Z,3.5
2019-02-18T04:33:00.402Z,3.44
2019-02-18T04:34:00.547Z,3.5
2019-02-18T04:35:00.992Z,3.44
2019-02-18T04:36:00.764Z,3.44
2019-02-18T04:37:00.834Z,3.44
2019-02-18T04:38:00.691Z,3.37
2019-02-18T04:39:02.391Z,3.37
2019-02-18T04:40:00.708Z,3.44
2019-02-18T04:41:00.729Z,3.44
2019-02-18T04:42:00.668Z,3.44
2019-02-18T04:43:00.604Z,3.37
2019-02-18T04:44:01.454Z,3.37
2019-02-18T04:45:00.656Z,3.37
2019-02-18T04:46:00.649Z,3.37
2019-02-18T04:47:00.683Z,3.37
2019-02-18T04:48:00.938Z,3.37
2019-02-18T04:49:01.814Z,3.44
2019-02-18T04:50:00.606Z,3.37
2019-02-18T04:51:00.679Z,3.37
2019-02-18T04:52:02.376Z,3.37
2019-02-18T04:53:01.081Z,3.31
2019-02-18T04:54:01.066Z,3.31
2019-02-18T04:55:00.673Z,3.31
2019-02-18T04:56:01.466Z,3.31
2019-02-18T04:57:00.929Z,3.31
2019-02-18T04:58:00.918Z,3.25
2019-02-18T04:59:00.786Z,3.25
2019-02-18T05:00:01.211Z,3.25
2019-02-18T05:01:03.373Z,3.25
2019-02-18T05:02:00.799Z,3.19
2019-02-18T05:03:01.117Z,3.12
2019-02-18T05:04:00.822Z,3.19
2019-02-18T05:05:01.019Z,3.12
2019-02-18T05:06:00.936Z,3.12
2019-02-18T05:07:02.436Z,3.12
2019-02-18T05:08:01.402Z,3.12
2019-02-18T05:09:06.161Z,3.12
2019-02-18T05:10:00.765Z,3.06
2019-02-18T05:11:00.576Z,3.12
2019-02-18T05:12:00.310Z,3.06
2019-02-18T05:13:02.384Z,3.12
2019-02-18T05:14:00.309Z,3.06
2019-02-18T05:15:00.467Z,3.06
2019-02-18T05:16:00.301Z,3
2019-02-18T05:17:00.354Z,3
2019-02-18T05:18:00.310Z,3.06
2019-02-18T05:19:00.697Z,3
2019-02-18T05:20:00.841Z,3
2019-02-18T05:21:00.936Z,3
2019-02-18T05:22:01.102Z,3.06
2019-02-18T05:23:00.846Z,3.06
2019-02-18T05:24:00.539Z,3.06
2019-02-18T05:25:01.294Z,3.06
2019-02-18T05:26:00.647Z,3.06
2019-02-18T05:27:00.882Z,3.12
2019-02-18T05:28:00.793Z,3.06
2019-02-18T05:29:02.440Z,3.12
2019-02-18T05:30:00.882Z,3.12
2019-02-18T05:31:01.531Z,3.06
2019-02-18T05:32:00.507Z,3.06
2019-02-18T05:33:00.800Z,3.06
2019-02-18T05:34:00.463Z,3.06
2019-02-18T05:35:00.685Z,3.12
2019-02-18T05:36:00.685Z,3.12
2019-02-18T05:37:02.287Z,3.12
2019-02-18T05:38:01.580Z,3.12
2019-02-18T05:39:00.864Z,3.12
2019-02-18T05:40:02.372Z,3.06
2019-02-18T05:41:00.887Z,3.12
2019-02-18T05:42:01.349Z,3.06
2019-02-18T05:43:00.423Z,3
2019-02-18T05:44:00.535Z,3
2019-02-18T05:45:01.027Z,3
2019-02-18T05:46:00.529Z,3
2019-02-18T05:47:02.301Z,2.94
2019-02-18T05:48:00.677Z,2.94
2019-02-18T05:49:00.841Z,2.94
2019-02-18T05:50:00.633Z,2.94
2019-02-18T05:51:01.047Z,2.94
2019-02-18T05:52:00.747Z,2.94
2019-02-18T05:53:00.569Z,2.94
2019-02-18T05:54:00.449Z,2.94
2019-02-18T05:55:00.813Z,2.94
2019-02-18T05:56:01.517Z,2.94
2019-02-18T05:57:00.592Z,2.94
2019-02-18T05:58:00.777Z,2.94
2019-02-18T05:59:00.455Z,2.87
2019-02-18T06:00:02.095Z,2.94
2019-02-18T06:01:02.250Z,2.87
2019-02-18T06:02:01.111Z,2.87
2019-02-18T06:03:00.957Z,2.87
2019-02-18T06:04:00.794Z,2.87
2019-02-18T06:05:01.135Z,2.87
2019-02-18T06:06:00.604Z,2.87
2019-02-18T06:07:02.239Z,2.87
2019-02-18T06:08:00.641Z,2.87
2019-02-18T06:09:01.406Z,2.81
2019-02-18T06:10:00.958Z,2.81
2019-02-18T06:11:00.763Z,2.81
2019-02-18T06:12:00.489Z,2.81
2019-02-18T06:13:00.716Z,2.75
2019-02-18T06:14:00.997Z,2.75
2019-02-18T06:15:00.874Z,2.75
2019-02-18T06:16:00.796Z,2.69
2019-02-18T06:17:03.114Z,2.75
2019-02-18T06:18:01.635Z,2.69
2019-02-18T06:19:00.408Z,2.69
2019-02-18T06:20:00.496Z,2.69
2019-02-18T06:21:02.257Z,2.69
2019-02-18T06:22:01.365Z,2.69
2019-02-18T06:23:02.225Z,2.69
2019-02-18T06:24:00.548Z,2.75
2019-02-18T06:25:00.608Z,2.75
2019-02-18T06:26:00.736Z,2.75
2019-02-18T06:27:00.892Z,2.75
2019-02-18T06:28:00.718Z,2.69
2019-02-18T06:29:00.426Z,2.75
2019-02-18T06:30:00.971Z,2.75
2019-02-18T06:31:00.857Z,2.75
2019-02-18T06:32:00.582Z,2.75
2019-02-18T06:33:01.489Z,2.75
2019-02-18T06:34:00.719Z,2.69
2019-02-18T06:35:01.080Z,2.69
2019-02-18T06:36:01.238Z,2.75
2019-02-18T06:37:00.480Z,2.75
2019-02-18T06:38:00.851Z,2.75
2019-02-18T06:39:00.949Z,2.75
2019-02-18T06:40:00.647Z,2.75
2019-02-18T06:41:00.496Z,2.75
2019-02-18T06:42:00.458Z,2.69
2019-02-18T06:43:00.757Z,2.69
2019-02-18T06:44:01.323Z,2.69
2019-02-18T06:45:01.093Z,2.69
2019-02-18T06:46:01.622Z,2.69
2019-02-18T06:47:00.679Z,2.75
2019-02-18T06:48:00.521Z,2.69
2019-02-18T06:49:02.250Z,2.69
2019-02-18T06:50:02.175Z,2.75
2019-02-18T06:51:00.728Z,2.75
2019-02-18T06:52:00.389Z,2.75
2019-02-18T06:53:00.507Z,2.81
2019-02-18T06:54:02.174Z,2.81
2019-02-18T06:55:00.489Z,2.81
2019-02-18T06:56:00.445Z,2.87
2019-02-18T06:57:00.921Z,2.87
2019-02-18T06:58:00.518Z,2.87
2019-02-18T06:59:00.291Z,2.94
2019-02-18T07:00:01.061Z,2.94
2019-02-18T07:01:00.381Z,2.94
2019-02-18T07:02:00.627Z,2.94
2019-02-18T07:03:00.862Z,2.94
2019-02-18T07:04:00.473Z,3
2019-02-18T07:05:00.691Z,2.94
2019-02-18T07:06:01.176Z,3
2019-02-18T07:07:01.083Z,3
2019-02-18T07:08:00.559Z,3
2019-02-18T07:09:00.536Z,3
2019-02-18T07:10:01.294Z,3
2019-02-18T07:11:00.602Z,2.94
2019-02-18T07:12:00.861Z,3
2019-02-18T07:13:00.571Z,3
2019-02-18T07:14:00.308Z,3
2019-02-18T07:15:00.877Z,3
2019-02-18T07:16:00.510Z,3
2019-02-18T07:17:00.515Z,2.94
2019-02-18T07:18:00.592Z,3
2019-02-18T07:19:00.695Z,3.06
2019-02-18T07:20:00.503Z,3.06
2019-02-18T07:21:00.844Z,3.06
2019-02-18T07:22:00.352Z,3.06
2019-02-18T07:23:00.834Z,3.06
2019-02-18T07:24:00.940Z,3.06
2019-02-18T07:25:00.820Z,3.12
2019-02-18T07:26:00.542Z,3.06
2019-02-18T07:27:00.738Z,3.06
2019-02-18T07:28:00.531Z,3.06
2019-02-18T07:29:01.256Z,3.06
2019-02-18T07:30:01.417Z,3.12
2019-02-18T07:31:00.763Z,3.12
2019-02-18T07:32:02.114Z,3.19
2019-02-18T07:33:00.364Z,3.19
2019-02-18T07:34:00.549Z,3.19
2019-02-18T07:35:00.827Z,3.19
2019-02-18T07:36:00.601Z,3.19
2019-02-18T07:37:00.329Z,3.25
2019-02-18T07:38:00.711Z,3.31
2019-02-18T07:39:00.605Z,3.31
2019-02-18T07:40:02.718Z,3.31
2019-02-18T07:41:00.097Z,3.31
2019-02-18T07:42:00.089Z,3.37
2019-02-18T07:43:00.089Z,3.37
2019-02-18T07:44:00.653Z,3.44
2019-02-18T07:45:01.498Z,3.44
2019-02-18T07:46:00.240Z,3.5
2019-02-18T07:47:01.450Z,3.5
2019-02-18T07:48:00.781Z,3.5
2019-02-18T07:49:00.592Z,3.56
2019-02-18T07:50:00.500Z,3.56
2019-02-18T07:51:02.091Z,3.62
2019-02-18T07:52:00.111Z,3.62
2019-02-18T07:53:02.104Z,3.62
2019-02-18T07:54:00.276Z,3.69
2019-02-18T07:55:00.472Z,3.75
2019-02-18T07:56:00.635Z,3.75
2019-02-18T07:57:00.246Z,3.75
2019-02-18T07:58:00.769Z,3.81
2019-02-18T07:59:00.546Z,3.87
2019-02-18T08:00:00.478Z,3.87
2019-02-18T08:01:00.766Z,3.94
2019-02-18T08:02:00.405Z,3.94
2019-02-18T08:03:00.473Z,3.94
2019-02-18T08:04:00.226Z,3.87
2019-02-18T08:05:02.908Z,3.87
2019-02-18T08:06:00.531Z,3.94
2019-02-18T08:07:00.761Z,3.94
2019-02-18T08:08:00.616Z,4
2019-02-18T08:09:00.883Z,4
2019-02-18T08:10:00.493Z,4.06
2019-02-18T08:11:00.522Z,4.06
2019-02-18T08:12:00.315Z,4.12
2019-02-18T08:13:00.745Z,4.19
2019-02-18T08:14:01.679Z,4.19
2019-02-18T08:15:00.543Z,4.25
2019-02-18T08:16:00.493Z,4.31
2019-02-18T08:17:00.266Z,4.31
2019-02-18T08:18:00.463Z,4.37
2019-02-18T08:19:00.594Z,4.37
2019-02-18T08:20:00.623Z,4.44
2019-02-18T08:21:00.607Z,4.5
2019-02-18T08:22:00.236Z,4.5
2019-02-18T08:23:01.247Z,4.5
2019-02-18T08:24:00.777Z,4.56
2019-02-18T08:25:01.067Z,4.62
2019-02-18T08:26:00.545Z,4.62
2019-02-18T08:27:00.387Z,4.62
2019-02-18T08:28:00.854Z,4.69
2019-02-18T08:29:00.389Z,4.75
2019-02-18T08:30:00.505Z,4.75
2019-02-18T08:31:00.398Z,4.81
2019-02-18T08:32:02.035Z,4.81
2019-02-18T08:33:00.574Z,4.87
2019-02-18T08:34:02.040Z,4.94
2019-02-18T08:35:01.056Z,5
2019-02-18T08:36:01.635Z,5
2019-02-18T08:37:00.598Z,5.06
2019-02-18T08:38:00.409Z,5.06
2019-02-18T08:39:00.613Z,5.12
2019-02-18T08:40:00.708Z,5.12
2019-02-18T08:41:01.118Z,5.19
2019-02-18T08:42:00.422Z,5.25
2019-02-18T08:43:00.481Z,5.25
2019-02-18T08:44:00.460Z,5.31
2019-02-18T08:45:00.460Z,5.37
2019-02-18T08:46:00.549Z,5.31
2019-02-18T08:47:01.033Z,5.44
2019-02-18T08:48:00.462Z,5.44
2019-02-18T08:49:00.168Z,5.5
2019-02-18T08:50:01.160Z,5.5
2019-02-18T08:51:00.477Z,5.56
2019-02-18T08:52:00.171Z,5.62
2019-02-18T08:53:00.191Z,5.69
2019-02-18T08:54:00.404Z,5.75
2019-02-18T08:55:02.082Z,5.75
2019-02-18T08:56:00.169Z,5.75
2019-02-18T08:57:01.182Z,5.81
2019-02-18T08:58:01.591Z,5.87
2019-02-18T08:59:00.232Z,5.94
2019-02-18T09:00:01.403Z,5.94
2019-02-18T09:01:03.266Z,6
2019-02-18T09:02:00.565Z,6
2019-02-18T09:03:01.081Z,6.06
2019-02-18T09:04:00.457Z,6.12
2019-02-18T09:05:00.572Z,6.12
2019-02-18T09:06:00.217Z,6.25
2019-02-18T09:07:00.179Z,6.25
2019-02-18T09:08:00.586Z,6.25
2019-02-18T09:09:00.324Z,6.31
2019-02-18T09:10:00.421Z,6.31
2019-02-18T09:11:00.174Z,6.37
2019-02-18T09:12:00.744Z,6.44
2019-02-18T09:13:00.448Z,6.44
2019-02-18T09:14:00.137Z,6.5
2019-02-18T09:15:00.476Z,6.5
2019-02-18T09:16:00.934Z,6.56
2019-02-18T09:17:00.234Z,6.62
2019-02-18T09:18:00.302Z,6.62
2019-02-18T09:19:01.070Z,6.69
2019-02-18T09:20:01.020Z,6.75
2019-02-18T09:21:01.071Z,6.75
2019-02-18T09:22:00.500Z,6.75
2019-02-18T09:23:00.426Z,6.81
2019-02-18T09:24:00.420Z,6.81
2019-02-18T09:25:00.271Z,6.87
2019-02-18T09:26:01.985Z,6.87
2019-02-18T09:27:00.507Z,6.94
2019-02-18T09:28:00.175Z,6.94
2019-02-18T09:29:00.174Z,7
2019-02-18T09:30:00.411Z,7
2019-02-18T09:31:02.426Z,7
2019-02-18T09:32:00.345Z,7.06
2019-02-18T09:33:00.416Z,7.06
2019-02-18T09:34:00.220Z,7.12
2019-02-18T09:35:02.585Z,7.19
2019-02-18T09:36:00.272Z,7.12
2019-02-18T09:37:00.181Z,7.19
2019-02-18T09:38:00.909Z,7.25
2019-02-18T09:39:00.393Z,7.25
2019-02-18T09:40:00.475Z,7.31
2019-02-18T09:41:00.618Z,7.37
2019-02-18T09:42:00.418Z,7.37
2019-02-18T09:43:00.444Z,7.44
2019-02-18T09:44:00.078Z,7.5
2019-02-18T09:45:00.559Z,7.56
2019-02-18T09:46:00.120Z,7.56
2019-02-18T09:47:00.545Z,7.56
2019-02-18T09:48:00.454Z,7.62
2019-02-18T09:49:00.161Z,7.62
2019-02-18T09:50:00.584Z,7.69
2019-02-18T09:51:00.658Z,7.75
2019-02-18T09:52:00.073Z,7.81
2019-02-18T09:53:02.883Z,7.75
2019-02-18T09:54:00.387Z,7.81
2019-02-18T09:55:00.537Z,7.81
2019-02-18T09:56:00.328Z,7.87
2019-02-18T09:57:00.245Z,7.94
2019-02-18T09:58:00.156Z,7.94
2019-02-18T09:59:00.147Z,7.94
2019-02-18T10:00:00.323Z,7.94
2019-02-18T10:01:01.200Z,8
2019-02-18T10:02:00.540Z,8
2019-02-18T10:03:01.901Z,8.06
2019-02-18T10:04:01.906Z,8.13
2019-02-18T10:05:00.659Z,8.13
2019-02-18T10:06:00.109Z,8.13
2019-02-18T10:07:00.462Z,8.19
2019-02-18T10:08:00.174Z,8.19
2019-02-18T10:09:00.512Z,8.25
2019-02-18T10:10:00.309Z,8.25
2019-02-18T10:11:00.348Z,8.31
2019-02-18T10:12:00.150Z,8.38
2019-02-18T10:13:01.966Z,8.38
2019-02-18T10:14:00.112Z,8.44
2019-02-18T10:15:00.418Z,8.5
2019-02-18T10:16:01.243Z,8.5
2019-02-18T10:17:00.452Z,8.56
2019-02-18T10:18:00.113Z,8.63
2019-02-18T10:19:00.380Z,8.63
2019-02-18T10:20:02.680Z,8.63
2019-02-18T10:21:00.154Z,8.63
2019-02-18T10:22:00.906Z,8.69
2019-02-18T10:23:00.286Z,8.69
2019-02-18T10:24:00.450Z,8.75
2019-02-18T10:25:00.368Z,8.81
2019-02-18T10:26:01.124Z,8.81
2019-02-18T10:26:59.860Z,8.81
2019-02-18T10:28:01.921Z,8.88
2019-02-18T10:29:00.073Z,8.88
2019-02-18T10:30:00.747Z,8.88
2019-02-18T10:30:59.838Z,8.94
2019-02-18T10:31:59.845Z,9
2019-02-18T10:32:59.830Z,9.13
2019-02-18T10:34:01.464Z,9.19
2019-02-18T10:35:00.502Z,9.25
2019-02-18T10:36:00.105Z,9.25
2019-02-18T10:37:00.019Z,9.31
2019-02-18T10:38:00.187Z,9.25
2019-02-18T10:38:59.981Z,9.31
2019-02-18T10:40:00.463Z,9.38
2019-02-18T10:41:07.474Z,9.38
2019-02-18T10:42:00.190Z,9.44
2019-02-18T10:43:00.107Z,9.5
2019-02-18T10:44:00.030Z,9.44
2019-02-18T10:45:00.465Z,9.5
2019-02-18T10:46:00.681Z,9.56
2019-02-18T10:47:00.093Z,9.63
2019-02-18T10:48:00.487Z,9.63
2019-02-18T10:49:00.401Z,9.63
2019-02-18T10:50:00.256Z,9.69
2019-02-18T10:51:00.145Z,9.69
2019-02-18T10:52:01.876Z,9.81
2019-02-18T10:53:00.983Z,9.88
2019-02-18T10:54:01.968Z,9.81
2019-02-18T10:55:01.005Z,9.88
2019-02-18T10:56:00.366Z,9.94
2019-02-18T10:57:00.149Z,10
2019-02-18T10:58:00.055Z,10.06
2019-02-18T10:59:00.656Z,10.06
2019-02-18T11:00:00.587Z,10.19
2019-02-18T11:01:00.121Z,10.19
2019-02-18T11:02:02.567Z,10.25
2019-02-18T11:03:00.389Z,10.31
2019-02-18T11:04:00.062Z,10.31
2019-02-18T11:05:00.830Z,10.38
2019-02-18T11:06:00.328Z,10.44
2019-02-18T11:07:00.822Z,10.44
2019-02-18T11:08:00.084Z,10.44
2019-02-18T11:09:00.184Z,10.5
2019-02-18T11:10:00.595Z,10.56
2019-02-18T11:11:00.047Z,10.56
2019-02-18T11:12:00.145Z,10.63
2019-02-18T11:13:01.986Z,10.75
2019-02-18T11:14:00.197Z,10.75
2019-02-18T11:15:01.116Z,10.75
2019-02-18T11:16:01.806Z,10.81
2019-02-18T11:16:59.821Z,10.81
2019-02-18T11:17:59.791Z,10.81
2019-02-18T11:18:59.803Z,10.88
2019-02-18T11:19:59.794Z,10.88
2019-02-18T11:21:01.686Z,10.94
2019-02-18T11:22:00.179Z,11.06
2019-02-18T11:23:00.708Z,11.06
2019-02-18T11:24:00.207Z,11.12
2019-02-18T11:25:00.548Z,11.19
2019-02-18T11:26:01.203Z,11.25
2019-02-18T11:27:00.546Z,11.31
2019-02-18T11:28:00.227Z,11.38
2019-02-18T11:29:01.995Z,11.44
2019-02-18T11:30:01.786Z,11.5
2019-02-18T11:31:00.392Z,11.56
2019-02-18T11:31:59.992Z,11.63
2019-02-18T11:33:00.801Z,11.63
2019-02-18T11:34:00.155Z,11.75
2019-02-18T11:35:01.165Z,11.69
2019-02-18T11:36:00.097Z,11.75
2019-02-18T11:37:02.077Z,11.81
2019-02-18T11:37:59.981Z,11.81
2019-02-18T11:39:00.207Z,11.88
2019-02-18T11:40:00.639Z,11.94
2019-02-18T11:41:00.188Z,12
2019-02-18T11:42:00.244Z,12
2019-02-18T11:43:00.650Z,12.13
2019-02-18T11:44:00.752Z,12.13
2019-02-18T11:45:01.895Z,12.19
2019-02-18T11:46:00.288Z,12.19
2019-02-18T11:47:00.571Z,12.25
2019-02-18T11:48:00.206Z,12.25
2019-02-18T11:49:00.193Z,12.19
2019-02-18T11:50:00.547Z,12.25
2019-02-18T11:51:01.733Z,12.31
2019-02-18T11:52:00.455Z,12.31
2019-02-18T11:53:01.412Z,12.37
2019-02-18T11:54:01.850Z,12.5
2019-02-18T11:55:00.462Z,12.5
2019-02-18T11:56:00.149Z,12.56
2019-02-18T11:57:00.090Z,12.56
2019-02-18T11:58:00.116Z,12.63
2019-02-18T11:59:00.965Z,12.69
2019-02-18T12:00:00.913Z,12.69
2019-02-18T12:01:01.789Z,12.75
2019-02-18T12:02:00.218Z,12.81
2019-02-18T12:03:13.288Z,12.81
2019-02-18T12:04:00.076Z,12.88
2019-02-18T12:05:00.358Z,12.88
2019-02-18T12:06:00.241Z,12.94
2019-02-18T12:06:59.956Z,13
2019-02-18T12:08:00.063Z,13.06
2019-02-18T12:09:02.469Z,13.13
2019-02-18T12:10:01.335Z,13.19
2019-02-18T12:11:00.189Z,13.19
2019-02-18T12:12:00.267Z,13.19
2019-02-18T12:13:00.001Z,13.19
2019-02-18T12:14:00.182Z,13.19
2019-02-18T12:15:00.646Z,13.25
2019-02-18T12:16:01.800Z,13.31
2019-02-18T12:17:00.298Z,13.31
2019-02-18T12:17:59.917Z,13.38
2019-02-18T12:19:00.159Z,13.31
2019-02-18T12:20:00.629Z,13.38
2019-02-18T12:21:00.144Z,13.44
2019-02-18T12:22:01.205Z,13.5
2019-02-18T12:23:01.136Z,13.56
2019-02-18T12:24:00.220Z,13.56
2019-02-18T12:25:00.524Z,13.62
2019-02-18T12:26:00.273Z,13.75
2019-02-18T12:27:00.872Z,13.75
2019-02-18T12:28:00.216Z,13.81
2019-02-18T12:29:00.216Z,13.81
2019-02-18T12:30:00.550Z,13.81
2019-02-18T12:31:01.590Z,13.88
2019-02-18T12:31:59.989Z,13.88
2019-02-18T12:33:01.813Z,13.94
2019-02-18T12:34:00.039Z,14
2019-02-18T12:34:59.947Z,14.06
2019-02-18T12:36:00.171Z,14.13
2019-02-18T12:36:59.992Z,14.13
2019-02-18T12:38:00.109Z,14.19
2019-02-18T12:39:01.644Z,14.19
2019-02-18T12:39:59.911Z,14.19
2019-02-18T12:41:00.257Z,14.25
2019-02-18T12:42:00.155Z,14.31
2019-02-18T12:43:00.239Z,14.31
2019-02-18T12:44:00.253Z,14.31
2019-02-18T12:45:01.382Z,14.38
2019-02-18T12:45:59.923Z,14.44
2019-02-18T12:47:02.108Z,14.5
2019-02-18T12:48:00.153Z,14.5
2019-02-18T12:49:00.198Z,14.56
2019-02-18T12:50:00.446Z,14.63
2019-02-18T12:50:59.957Z,14.63
2019-02-18T12:52:00.222Z,14.63
2019-02-18T12:53:00.070Z,14.63
2019-02-18T12:54:05.857Z,14.75
2019-02-18T12:55:01.660Z,14.75
2019-02-18T12:56:00.435Z,14.75
2019-02-18T12:57:00.323Z,14.81
2019-02-18T12:58:01.792Z,14.87
2019-02-18T12:59:00.063Z,15
2019-02-18T13:00:01.656Z,14.94
2019-02-18T13:01:00.154Z,14.94
2019-02-18T13:02:00.063Z,14.94
2019-02-18T13:03:01.789Z,14.81
2019-02-18T13:03:59.971Z,14.81
2019-02-18T13:05:00.671Z,14.81
2019-02-18T13:06:00.803Z,14.87
2019-02-18T13:07:00.957Z,14.87
2019-02-18T13:08:03.275Z,14.87
2019-02-18T13:09:00.183Z,14.87
2019-02-18T13:10:00.601Z,14.75
2019-02-18T13:11:00.903Z,14.81
2019-02-18T13:12:00.254Z,14.87
2019-02-18T13:13:00.320Z,14.87
2019-02-18T13:14:00.238Z,14.87
2019-02-18T13:15:01.837Z,14.87
2019-02-18T13:16:02.200Z,14.87
2019-02-18T13:17:00.275Z,14.87
2019-02-18T13:19:00.137Z,14.94
2019-02-18T13:20:00.630Z,14.94
2019-02-18T13:20:59.974Z,14.94
2019-02-18T13:21:59.933Z,15